Time;durP1;ratioP1;P1;durP2;ratioP2;P2;SDS_P1;SDS_P2;PMS_P1;PMS_P2;Temp;Humidity;BMP_temperature;BMP_pressure;BME280_temperature;BME280_humidity;BME280_pressure;Samples;Min_cycle;Max_cycle;Signal;HPM_P1;HPM_P2
2022/03/19 00:02:22;;;;;;;130.07;61.38;;;;;;;0.33;76.75;102744.00;5109935;28;20098;-76
2022/03/19 00:04:48;;;;;;;136.77;59.97;;;;;;;0.42;77.10;102759.75;5108235;28;20489;-75
2022/03/19 00:07:14;;;;;;;144.80;61.45;;;;;;;0.33;77.19;102748.41;5109568;28;20039;-75
2022/03/19 00:09:41;;;;;;;133.93;59.28;;;;;;;0.28;76.83;102748.44;5108154;28;20039;-74
2022/03/19 00:12:08;;;;;;;130.00;60.38;;;;;;;0.34;77.01;102761.59;5108164;28;20465;-75
2022/03/19 00:14:33;;;;;;;124.97;58.40;;;;;;;0.24;76.99;102756.38;5109601;28;20030;-75
2022/03/19 00:16:59;;;;;;;126.07;57.97;;;;;;;0.25;77.13;102756.38;5109726;28;20027;-75
2022/03/19 00:19:25;;;;;;;128.23;60.15;;;;;;;0.17;76.89;102750.28;5109773;28;20515;-75
2022/03/19 00:21:51;;;;;;;131.70;59.22;;;;;;;0.11;76.65;102745.03;5110035;28;20098;-75
2022/03/19 00:24:16;;;;;;;145.35;62.75;;;;;;;0.10;76.73;102756.50;5109355;28;20130;-75
2022/03/19 00:26:42;;;;;;;146.10;66.20;;;;;;;0.13;77.13;102753.84;5108145;28;20107;-76
2022/03/19 00:29:08;;;;;;;149.98;66.00;;;;;;;-0.01;77.61;102742.47;5109323;28;20024;-76
2022/03/19 00:31:34;;;;;;;142.55;67.40;;;;;;;0.00;78.13;102744.25;5109361;28;20020;-76
2022/03/19 00:33:59;;;;;;;134.70;65.90;;;;;;;0.03;78.30;102752.09;5109389;28;20058;-76
2022/03/19 00:36:25;;;;;;;138.95;65.90;;;;;;;0.01;78.46;102748.63;5109177;28;20028;-76
2022/03/19 00:38:51;;;;;;;139.48;63.85;;;;;;;-0.04;78.77;102747.75;5108964;28;20492;-76
2022/03/19 00:41:16;;;;;;;134.15;64.50;;;;;;;0.00;78.31;102755.66;5107791;28;20027;-76
2022/03/19 00:43:42;;;;;;;133.65;62.92;;;;;;;-0.03;78.75;102754.81;5107863;28;20026;-76
2022/03/19 00:46:07;;;;;;;136.75;64.30;;;;;;;-0.02;79.17;102753.91;5107585;28;20738;-76
2022/03/19 00:48:33;;;;;;;140.88;63.85;;;;;;;-0.07;79.34;102750.41;5109227;28;20023;-73
2022/03/19 00:50:58;;;;;;;133.02;62.55;;;;;;;-0.13;78.73;102743.41;5108921;28;20114;-75
2022/03/19 00:53:24;;;;;;;145.85;61.70;;;;;;;-0.29;78.65;102719.81;5111268;28;20123;-75
2022/03/19 00:55:49;;;;;;;127.88;60.92;;;;;;;-0.20;78.80;102740.81;5112537;28;20027;-74
2022/03/19 00:58:14;;;;;;;129.93;59.85;;;;;;;-0.18;79.32;102744.34;5112594;28;20024;-75
2022/03/19 01:00:40;;;;;;;132.82;59.45;;;;;;;-0.19;78.64;102753.13;5112363;28;20023;-74
2022/03/19 01:03:06;;;;;;;137.95;61.15;;;;;;;-0.33;78.28;102733.84;5112364;28;20110;-75
2022/03/19 01:05:31;;;;;;;129.02;60.88;;;;;;;-0.31;78.82;102740.91;5112386;28;20019;-74
2022/03/19 01:07:57;;;;;;;123.32;58.75;;;;;;;-0.34;79.08;102734.75;5112233;28;20015;-74
2022/03/19 01:10:26;;;;;;;125.93;59.42;;;;;;;-0.42;79.50;102724.22;5112399;28;20036;-75
2022/03/19 01:12:53;;;;;;;132.30;60.95;;;;;;;-0.36;79.18;102739.13;5112340;28;20065;-75
2022/03/19 01:15:19;;;;;;;122.00;58.10;;;;;;;-0.49;79.43;102713.72;5110600;28;20123;-75
2022/03/19 01:17:45;;;;;;;120.53;57.47;;;;;;;-0.46;79.73;102722.50;5111821;28;20024;-75
2022/03/19 01:20:12;;;;;;;123.22;58.10;;;;;;;-0.40;79.33;102730.38;5112159;28;20562;-75
2022/03/19 01:22:40;;;;;;;121.55;56.20;;;;;;;-0.46;79.18;102718.97;5110724;28;20038;-75
2022/03/19 01:25:08;;;;;;;130.65;58.20;;;;;;;-0.43;78.64;102724.25;5111508;28;20051;-75
2022/03/19 01:27:34;;;;;;;120.55;56.00;;;;;;;-0.44;78.40;102725.13;5111419;28;20466;-75
2022/03/19 01:30:00;;;;;;;126.47;58.08;;;;;;;-0.48;78.21;102718.13;5110073;28;20035;-75
2022/03/19 01:32:26;;;;;;;121.88;55.08;;;;;;;-0.44;77.92;102720.75;5110635;28;20494;-75
2022/03/19 01:34:53;;;;;;;119.97;57.22;;;;;;;-0.56;77.66;102706.72;5111867;28;20471;-75
2022/03/19 01:37:19;;;;;;;128.93;58.35;;;;;;;-0.62;77.68;102694.47;5110218;28;20028;-75
2022/03/19 01:39:44;;;;;;;112.00;54.85;;;;;;;-0.55;77.75;102706.72;5111822;28;20039;-75
2022/03/19 01:42:10;;;;;;;120.72;57.38;;;;;;;-0.56;77.54;102707.63;5111575;28;20035;-75
2022/03/19 01:44:36;;;;;;;114.75;52.80;;;;;;;-0.54;77.54;102705.81;5110368;28;20027;-75
2022/03/19 01:47:10;;;;;;;122.10;56.17;;;;;;;-0.61;77.63;102711.16;5111474;28;20045;-75
2022/03/19 01:49:36;;;;;;;119.65;57.60;;;;;;;-0.59;78.30;102715.53;5111584;28;20051;-75
2022/03/19 01:52:03;;;;;;;120.72;57.08;;;;;;;-0.69;78.79;102700.66;5111393;28;20035;-72
2022/03/19 01:54:41;;;;;;;119.82;57.42;;;;;;;-0.61;79.17;102705.88;5111428;27;20131;-73
2022/03/19 01:57:08;;;;;;;114.50;55.90;;;;;;;-0.65;78.66;102709.41;5111214;28;20027;-72
2022/03/19 01:59:36;;;;;;;110.40;55.22;;;;;;;-0.64;78.25;102709.38;5111595;28;20523;-72
2022/03/19 02:02:11;;;;;;;113.65;52.72;;;;;;;-0.76;77.92;102680.47;5110688;28;20103;-73
2022/03/19 02:04:38;;;;;;;105.63;53.88;;;;;;;-0.70;77.93;102700.66;5111207;28;20433;-72
2022/03/19 02:07:07;;;;;;;113.40;53.35;;;;;;;-0.72;77.99;102705.91;5109808;28;20055;-73
2022/03/19 02:09:33;;;;;;;103.85;52.03;;;;;;;-0.71;78.03;102699.75;5111424;28;20395;-73
2022/03/19 02:11:59;;;;;;;106.70;52.63;;;;;;;-0.76;78.12;102698.91;5111070;28;20020;-73
2022/03/19 02:14:25;;;;;;;101.90;51.22;;;;;;;-0.90;77.42;102673.50;5109737;28;20483;-72
2022/03/19 02:16:51;;;;;;;112.18;53.42;;;;;;;-0.80;77.52;102689.25;5109443;28;20110;-72
2022/03/19 02:19:16;;;;;;;109.18;53.70;;;;;;;-0.86;78.08;102678.75;5110819;28;20114;-72
2022/03/19 02:21:50;;;;;;;113.38;53.60;;;;;;;-0.79;78.20;102691.03;5109439;28;20027;-72
2022/03/19 02:27:00;;;;;;;110.88;52.17;;;;;;;-0.92;77.92;102664.72;5111121;28;20410;-73
2022/03/19 02:29:26;;;;;;;110.47;54.38;;;;;;;-0.87;78.42;102684.88;5109212;28;20364;-73
2022/03/19 02:31:58;;;;;;;112.45;54.40;;;;;;;-0.88;78.56;102684.91;5110972;28;20479;-72
2022/03/19 02:34:24;;;;;;;129.65;55.92;;;;;;;-0.90;78.89;102682.25;5110713;28;20548;-73
2022/03/19 02:36:50;;;;;;;128.68;57.65;;;;;;;-0.95;78.98;102680.53;5110420;28;20166;-72
2022/03/19 02:39:31;;;;;;;128.45;57.42;;;;;;;-0.97;79.00;102677.91;5109267;28;20142;-72
2022/03/19 02:41:59;;;;;;;148.32;60.60;;;;;;;-1.03;79.02;102670.03;5109071;28;20027;-72
2022/03/19 02:44:24;;;;;;;163.00;63.15;;;;;;;-0.97;79.72;102682.31;5108869;28;20486;-72
2022/03/19 02:46:56;;;;;;;166.43;64.65;;;;;;;-1.00;79.86;102679.69;5108942;28;20034;-72
2022/03/19 02:49:22;;;;;;;153.30;61.83;;;;;;;-1.05;80.01;102671.81;5109003;28;20497;-73
2022/03/19 02:51:50;;;;;;;148.35;61.03;;;;;;;-1.07;79.45;102680.56;5108793;28;20096;-73
2022/03/19 02:54:19;;;;;;;150.45;64.18;;;;;;;-1.22;79.73;102660.44;5110063;28;20055;-72
2022/03/19 02:56:46;;;;;;;149.75;63.13;;;;;;;-1.12;79.51;102674.44;5109995;28;20041;-72
2022/03/19 02:59:18;;;;;;;146.25;62.28;;;;;;;-1.18;79.54;102663.94;5108571;28;20015;-73
2022/03/19 03:01:44;;;;;;;147.13;61.80;;;;;;;-1.18;79.02;102671.81;5110032;28;20035;-73
2022/03/19 03:04:10;;;;;;;157.38;64.78;;;;;;;-1.18;79.13;102672.72;5109973;28;20027;-73
2022/03/19 03:06:38;;;;;;;153.60;63.17;;;;;;;-1.21;78.90;102667.47;5109972;28;20375;-73
2022/03/19 03:09:04;;;;;;;150.52;64.60;;;;;;;-1.25;79.10;102667.47;5109948;28;20039;-74
2022/03/19 03:11:31;;;;;;;161.60;66.47;;;;;;;-1.20;79.36;102671.81;5108760;28;20034;-73
2022/03/19 03:13:58;;;;;;;151.10;65.03;;;;;;;-1.22;79.73;102665.72;5109254;28;20504;-73
2022/03/19 03:16:26;;;;;;;163.98;66.43;;;;;;;-1.32;79.29;102653.41;5109952;27;20422;-73
2022/03/19 03:18:54;;;;;;;153.50;63.13;;;;;;;-1.25;79.44;102659.56;5108373;28;20051;-73
2022/03/19 03:21:20;;;;;;;161.05;69.07;;;;;;;-1.24;79.18;102662.19;5108174;28;20027;-73
2022/03/19 03:23:45;;;;;;;146.02;65.90;;;;;;;-1.29;79.31;102666.56;5108508;28;20230;-73
2022/03/19 03:26:11;;;;;;;146.77;62.70;;;;;;;-1.25;78.96;102664.84;5109563;28;20040;-73
2022/03/19 03:28:36;;;;;;;155.38;65.35;;;;;;;-1.33;79.01;102653.41;5109630;28;20031;-73
2022/03/19 03:31:02;;;;;;;169.07;65.78;;;;;;;-1.35;78.68;102656.06;5109824;28;20024;-73
2022/03/19 03:33:28;;;;;;;161.73;64.72;;;;;;;-1.29;79.36;102668.34;5108448;28;20028;-73
2022/03/19 03:35:53;;;;;;;148.95;60.58;;;;;;;-1.30;79.13;102661.31;5109435;28;20030;-73
2022/03/19 03:38:19;;;;;;;144.00;61.58;;;;;;;-1.37;79.53;102651.69;5109692;28;20058;-73
2022/03/19 03:40:45;;;;;;;147.50;61.60;;;;;;;-1.34;79.51;102659.56;5109662;28;20036;-73
2022/03/19 03:43:10;;;;;;;146.68;59.95;;;;;;;-1.35;78.76;102668.38;5109413;28;20076;-73
2022/03/19 03:45:36;;;;;;;154.23;63.20;;;;;;;-1.45;78.73;102648.22;5109543;28;20050;-73
2022/03/19 03:48:01;;;;;;;145.70;60.75;;;;;;;-1.54;78.91;102637.69;5109624;28;20031;-73
2022/03/19 03:50:28;;;;;;;137.68;60.17;;;;;;;-1.51;78.53;102650.84;5109453;28;20019;-73
2022/03/19 03:52:54;;;;;;;142.52;61.55;;;;;;;-1.49;78.65;102652.59;5109532;28;20051;-73
2022/03/19 03:55:20;;;;;;;138.73;61.63;;;;;;;-1.55;78.78;102647.31;5109296;28;20042;-73
2022/03/19 03:57:46;;;;;;;132.70;58.20;;;;;;;-1.54;78.84;102653.47;5109582;28;20114;-73
2022/03/19 04:00:12;;;;;;;127.97;58.60;;;;;;;-1.64;78.75;102643.84;5109304;28;20530;-73
2022/03/19 04:02:38;;;;;;;134.75;60.85;;;;;;;-1.57;79.12;102664.88;5108030;28;20046;-73
2022/03/19 04:05:05;;;;;;;135.13;57.47;;;;;;;-1.70;78.84;102636.84;5109283;28;20031;-73
2022/03/19 04:07:31;;;;;;;130.63;55.58;;;;;;;-1.65;78.82;102650.00;5108210;28;20118;-73
2022/03/19 04:09:56;;;;;;;132.18;54.05;;;;;;;-1.68;79.02;102644.72;5108013;28;20122;-73
2022/03/19 04:12:22;;;;;;;127.13;53.47;;;;;;;-1.71;79.70;102639.47;5108239;28;20062;-73
2022/03/19 04:14:54;;;;;;;115.38;53.42;;;;;;;-1.70;79.92;102641.22;5109424;28;20020;-72
2022/03/19 04:17:19;;;;;;;112.70;53.08;;;;;;;-1.68;79.70;102642.97;5108186;28;20501;-73
2022/03/19 04:19:45;;;;;;;114.88;52.10;;;;;;;-1.72;79.99;102638.59;5109204;28;20024;-73
2022/03/19 04:22:11;;;;;;;117.00;52.63;;;;;;;-1.65;80.27;102652.63;5109236;28;20038;-73
2022/03/19 04:24:37;;;;;;;118.38;52.25;;;;;;;-1.74;80.18;102640.31;5108683;28;20100;-73
2022/03/19 04:27:03;;;;;;;118.07;53.42;;;;;;;-1.69;80.12;102658.75;5113362;28;20023;-72
2022/03/19 04:29:29;;;;;;;128.77;55.35;;;;;;;-1.71;79.98;102660.50;5113132;28;20544;-73
2022/03/19 04:31:54;;;;;;;142.25;60.13;;;;;;;-1.82;79.79;102649.09;5113016;28;20032;-72
2022/03/19 04:34:20;;;;;;;144.63;61.47;;;;;;;-1.85;79.69;102650.00;5111551;28;20016;-72
2022/03/19 04:36:45;;;;;;;142.82;64.07;;;;;;;-1.79;80.03;102665.78;5112953;28;20135;-72
2022/03/19 04:39:11;;;;;;;153.93;66.72;;;;;;;-1.84;79.83;102670.13;5111833;28;20057;-72
2022/03/19 04:41:37;;;;;;;145.80;66.05;;;;;;;-1.89;79.65;102661.41;5114310;28;20074;-72
2022/03/19 04:44:04;;;;;;;147.82;64.85;;;;;;;-1.96;79.42;102656.13;5114318;28;20023;-72
2022/03/19 04:46:30;;;;;;;149.80;63.08;;;;;;;-1.96;79.58;102658.75;5114073;28;20043;-72
2022/03/19 04:48:56;;;;;;;131.05;59.80;;;;;;;-2.00;79.76;102660.50;5113729;28;20028;-73
2022/03/19 04:51:36;;;;;;;134.82;61.65;;;;;;;-2.04;80.19;102663.16;5112672;28;20057;-73
2022/03/19 04:54:02;;;;;;;133.90;59.38;;;;;;;-2.06;80.04;102662.25;5114202;28;20024;-73
2022/03/19 04:56:29;;;;;;;136.15;59.72;;;;;;;-2.05;80.25;102661.38;5112526;28;20036;-72
2022/03/19 04:58:56;;;;;;;133.93;58.50;;;;;;;-2.02;80.21;102671.88;5112649;28;20027;-72
2022/03/19 05:01:25;;;;;;;138.18;60.53;;;;;;;-1.97;80.32;102684.16;5113944;28;20020;-72
2022/03/19 05:03:50;;;;;;;129.02;56.65;;;;;;;-1.99;80.20;102679.78;5113808;28;20497;-72
2022/03/19 05:06:16;;;;;;;132.20;59.17;;;;;;;-2.05;80.11;102664.00;5112423;28;20118;-73
2022/03/19 05:08:41;;;;;;;127.68;57.58;;;;;;;-1.95;80.47;102673.66;5113629;27;20089;-72
2022/03/19 05:11:13;;;;;;;133.05;59.22;;;;;;;-1.94;80.73;102678.06;5113510;28;20039;-73
2022/03/19 05:13:44;;;;;;;138.20;61.55;;;;;;;-1.90;80.82;102680.69;5112172;28;20039;-73
2022/03/19 05:16:13;;;;;;;124.97;57.90;;;;;;;-1.89;80.84;102666.66;5113553;28;20501;-73
2022/03/19 05:18:39;;;;;;;126.00;56.65;;;;;;;-1.98;80.87;102660.50;5112298;28;20792;-73
2022/03/19 05:21:05;;;;;;;117.35;53.67;;;;;;;-1.91;81.09;102662.28;5112421;28;20499;-72
2022/03/19 05:23:31;;;;;;;125.45;55.08;;;;;;;-1.88;80.58;102668.38;5113750;28;20023;-72
2022/03/19 05:25:58;;;;;;;114.05;53.45;;;;;;;-1.90;81.08;102664.91;5113243;28;20040;-72
2022/03/19 05:28:24;;;;;;;120.82;53.13;;;;;;;-1.81;81.46;102674.53;5113342;28;20056;-72
2022/03/19 05:30:50;;;;;;;126.60;54.03;;;;;;;-1.86;81.86;102657.88;5113326;28;20031;-72
2022/03/19 05:33:16;;;;;;;113.25;52.80;;;;;;;-1.78;82.24;102671.91;5112311;28;20060;-72
2022/03/19 05:35:42;;;;;;;121.32;56.00;;;;;;;-1.68;82.79;102677.16;5102171;28;20040;-73
2022/03/19 05:38:08;;;;;;;111.97;54.53;;;;;;;-1.58;83.56;102688.56;5109522;28;21182;-73
2022/03/19 05:40:35;;;;;;;117.20;54.17;;;;;;;-1.52;83.74;102680.69;5106190;28;20071;-73
2022/03/19 05:43:00;;;;;;;98.82;47.80;;;;;;;-1.48;83.04;102679.78;5106396;28;20402;-73
2022/03/19 05:45:26;;;;;;;99.20;48.08;;;;;;;-1.43;83.10;102672.75;5108750;28;20023;-73
2022/03/19 05:47:51;;;;;;;88.63;44.15;;;;;;;-1.44;83.37;102665.75;5110074;28;20051;-73
2022/03/19 05:50:18;;;;;;;91.80;45.67;;;;;;;-1.26;83.76;102682.38;5112016;28;20065;-73
2022/03/19 05:52:47;;;;;;;91.35;44.42;;;;;;;-1.21;83.92;102682.38;5110858;28;20110;-73
2022/03/19 05:55:14;;;;;;;96.60;46.75;;;;;;;-1.11;84.11;102689.34;5109243;28;20023;-73
2022/03/19 05:57:40;;;;;;;95.85;45.55;;;;;;;-0.96;84.68;102699.84;5112281;28;20083;-73
2022/03/19 06:00:08;;;;;;;88.15;44.20;;;;;;;-0.85;85.35;102690.16;5112699;28;20070;-73
2022/03/19 06:02:38;;;;;;;83.07;41.35;;;;;;;-0.77;86.18;102680.47;5112628;28;20489;-72
2022/03/19 06:05:04;;;;;;;81.10;39.65;;;;;;;-0.59;86.33;102675.13;5110514;28;20073;-72
2022/03/19 06:07:30;;;;;;;86.07;43.17;;;;;;;-0.43;86.52;102679.44;5107109;28;20495;-72
2022/03/19 06:09:55;;;;;;;78.13;41.00;;;;;;;-0.19;86.48;102695.97;5112361;28;20035;-73
2022/03/19 06:12:21;;;;;;;83.32;41.15;;;;;;;-0.03;86.65;102689.72;5111880;28;20106;-73
2022/03/19 06:14:49;;;;;;;79.55;41.30;;;;;;;0.17;86.50;102691.34;5112355;28;20027;-73
2022/03/19 06:17:14;;;;;;;76.57;39.58;;;;;;;0.37;85.85;102700.88;5111354;28;20020;-73
2022/03/19 06:19:39;;;;;;;69.53;37.78;;;;;;;0.52;85.11;102687.53;5113875;28;20026;-73
2022/03/19 06:22:05;;;;;;;78.35;40.53;;;;;;;0.63;84.48;102679.50;5112838;28;20466;-73
2022/03/19 06:24:30;;;;;;;70.88;39.65;;;;;;;0.78;83.37;102680.25;5112350;28;20472;-73
2022/03/19 06:26:56;;;;;;;72.43;39.92;;;;;;;1.01;82.39;102682.63;5112759;28;20108;-73
2022/03/19 06:29:22;;;;;;;79.68;41.92;;;;;;;1.24;81.29;102697.34;5112472;28;20027;-73
2022/03/19 06:31:48;;;;;;;76.53;41.63;;;;;;;1.48;79.78;102702.31;5112398;28;20474;-73
2022/03/19 06:34:13;;;;;;;76.97;42.22;;;;;;;1.69;79.12;102704.69;5111225;28;20043;-73
2022/03/19 06:39:23;;;;;;;75.55;42.17;;;;;;;2.00;77.05;102681.31;5111858;28;20110;-73
2022/03/19 06:41:48;;;;;;;71.25;39.55;;;;;;;2.27;75.46;102687.06;5112215;28;20114;-73
2022/03/19 06:44:15;;;;;;;87.13;44.67;;;;;;;2.39;74.46;102681.53;5111703;28;20028;-73
2022/03/19 06:46:40;;;;;;;76.40;42.67;;;;;;;2.71;73.80;102694.22;5110909;28;20096;-73
2022/03/19 06:49:06;;;;;;;76.55;41.38;;;;;;;2.87;72.79;102685.09;5110377;28;20466;-73
2022/03/19 06:51:31;;;;;;;77.25;44.13;;;;;;;3.06;71.82;102681.19;5111678;28;20475;-73
2022/03/19 06:53:57;;;;;;;73.30;42.05;;;;;;;3.31;71.28;102686.88;5110171;28;20038;-73
2022/03/19 06:56:23;;;;;;;72.03;41.72;;;;;;;3.47;70.60;102669.75;5111167;28;20407;-73
2022/03/19 06:58:48;;;;;;;73.78;41.22;;;;;;;3.73;70.01;102672.72;5111144;28;20043;-73
2022/03/19 07:01:16;;;;;;;78.38;41.45;;;;;;;4.03;69.77;102678.19;5111351;28;20027;-73
2022/03/19 07:03:43;;;;;;;70.60;39.05;;;;;;;4.31;69.19;102678.41;5110615;28;20553;-73
2022/03/19 07:06:09;;;;;;;68.18;38.45;;;;;;;4.52;68.02;102665.44;5112078;28;20019;-73
2022/03/19 07:08:35;;;;;;;63.53;36.38;;;;;;;4.84;66.79;102671.72;5110348;28;20118;-73
2022/03/19 07:11:00;;;;;;;67.40;39.05;;;;;;;5.04;66.41;102669.38;5109900;28;20032;-73
2022/03/19 07:13:26;;;;;;;66.88;36.97;;;;;;;5.28;65.98;102669.56;5109729;28;20044;-74
2022/03/19 07:15:51;;;;;;;60.95;36.28;;;;;;;5.63;65.30;102693.38;5108557;28;20016;-73
2022/03/19 07:18:17;;;;;;;61.72;35.95;;;;;;;5.88;64.53;102675.78;5110875;28;20030;-73
2022/03/19 07:20:42;;;;;;;57.05;34.88;;;;;;;6.10;63.29;102668.81;5110840;28;20035;-73
2022/03/19 07:23:08;;;;;;;54.38;34.75;;;;;;;6.38;62.62;102675.00;5110794;28;20027;-73
2022/03/19 07:25:36;;;;;;;60.78;36.95;;;;;;;6.67;61.86;102677.56;5109568;28;20111;-73
2022/03/19 07:28:09;;;;;;;59.42;35.75;;;;;;;6.95;60.72;102674.81;5110769;28;20055;-74
2022/03/19 07:30:35;;;;;;;55.28;34.97;;;;;;;7.15;60.13;102655.44;5109248;28;20159;-73
2022/03/19 07:33:02;;;;;;;54.08;33.03;;;;;;;7.43;58.71;102661.47;5110814;28;20425;-73
2022/03/19 07:35:27;;;;;;;53.05;34.30;;;;;;;7.72;58.03;102677.25;5110727;28;20027;-73
2022/03/19 07:37:54;;;;;;;58.55;34.60;;;;;;;7.91;57.30;102667.59;5109245;28;20126;-74
2022/03/19 07:43:09;;;;;;;52.05;32.22;;;;;;;8.52;56.22;102672.22;5108556;28;20053;-73
2022/03/19 07:45:35;;;;;;;53.20;32.78;;;;;;;8.85;55.22;102674.34;5108493;28;20030;-74
2022/03/19 07:48:02;;;;;;;49.20;31.73;;;;;;;9.13;54.78;102676.69;5108870;28;20036;-73
2022/03/19 07:50:28;;;;;;;50.78;32.08;;;;;;;9.43;54.31;102671.75;5109000;28;20024;-72
2022/03/19 07:52:53;;;;;;;47.75;32.42;;;;;;;9.75;53.16;102663.97;5110545;28;20035;-72
2022/03/19 07:55:19;;;;;;;46.28;31.50;;;;;;;10.20;52.48;102667.16;5110247;28;20036;-72
2022/03/19 07:57:45;;;;;;;49.15;31.88;;;;;;;10.70;50.83;102649.38;5109324;28;20057;-72
2022/03/19 08:00:12;;;;;;;43.13;31.55;;;;;;;11.82;47.85;102664.81;5110905;28;20085;-73
2022/03/19 08:02:38;;;;;;;46.20;30.58;;;;;;;12.77;44.51;102660.97;5114362;28;20555;-72
2022/03/19 08:05:04;;;;;;;41.03;29.52;;;;;;;13.75;43.18;102654.84;5112979;28;20031;-72
2022/03/19 08:07:30;;;;;;;38.70;29.27;;;;;;;14.89;40.62;102667.88;5112924;28;20043;-73
2022/03/19 08:09:56;;;;;;;36.33;28.38;;;;;;;15.78;38.64;102660.59;5114364;28;20118;-73
2022/03/19 08:12:21;;;;;;;37.50;29.35;;;;;;;16.84;36.74;102652.59;5114399;28;20047;-74
2022/03/19 08:14:47;;;;;;;35.92;28.00;;;;;;;17.47;35.65;102653.84;5112957;28;20061;-74
2022/03/19 08:17:13;;;;;;;33.33;26.58;;;;;;;18.18;33.97;102645.25;5108219;27;20386;-74
2022/03/19 08:19:39;;;;;;;32.25;26.15;;;;;;;18.74;32.74;102640.53;5111465;28;20058;-73
2022/03/19 08:22:04;;;;;;;33.10;26.27;;;;;;;19.18;31.87;102638.41;5110763;27;20031;-73
2022/03/19 08:24:30;;;;;;;29.13;25.92;;;;;;;19.64;31.22;102638.00;5112551;27;20043;-73
2022/03/19 08:26:55;;;;;;;29.58;25.13;;;;;;;20.06;30.71;102643.13;5111366;27;20044;-73
2022/03/19 08:29:24;;;;;;;31.50;25.42;;;;;;;20.35;29.79;102637.81;5109566;27;20063;-72
2022/03/19 08:31:53;;;;;;;31.27;25.63;;;;;;;20.96;29.23;102641.97;5110876;28;20039;-73
2022/03/19 08:34:20;;;;;;;28.15;25.15;;;;;;;21.32;28.76;102646.69;5111362;28;20130;-73
2022/03/19 08:36:45;;;;;;;29.30;24.02;;;;;;;21.56;28.34;102647.00;5108257;28;20066;-73
2022/03/19 08:41:55;;;;;;;;;;;;;;;22.09;26.83;102641.78;5112228;28;20126;-73
2022/03/19 08:44:21;;;;;;;26.92;23.25;;;;;;;22.47;26.34;102611.41;5111868;28;20442;-74
2022/03/19 08:46:46;;;;;;;25.50;22.42;;;;;;;22.88;25.63;102626.34;5112355;27;20028;-74
2022/03/19 08:49:12;;;;;;;26.80;23.90;;;;;;;23.24;25.11;102625.28;5110486;28;20055;-73
2022/03/19 08:51:40;;;;;;;27.90;23.40;;;;;;;23.53;25.02;102629.41;5112445;28;20031;-73
2022/03/19 08:54:12;;;;;;;25.02;22.23;;;;;;;23.66;24.74;102628.97;5109644;28;20555;-73
2022/03/19 08:56:38;;;;;;;25.17;22.50;;;;;;;24.11;24.08;102626.78;5109389;28;20032;-73
2022/03/19 08:59:04;;;;;;;24.80;21.88;;;;;;;24.46;23.57;102615.56;5111646;28;20033;-73
2022/03/19 09:01:30;;;;;;;25.70;22.73;;;;;;;24.66;23.51;102616.13;5111919;28;20035;-73
2022/03/19 09:03:55;;;;;;;25.38;20.90;;;;;;;24.79;23.19;102613.75;5111775;28;20035;-73
2022/03/19 09:06:21;;;;;;;25.08;21.73;;;;;;;25.04;22.75;102620.91;5110734;28;20020;-74
2022/03/19 09:08:50;;;;;;;25.77;19.98;;;;;;;25.30;22.17;102605.06;5111884;28;20051;-72
2022/03/19 09:11:20;;;;;;;25.90;20.48;;;;;;;25.56;21.67;102597.47;5105274;28;20096;-73
2022/03/19 09:13:49;;;;;;;29.35;21.13;;;;;;;25.60;21.66;102607.94;5110013;28;20558;-73
2022/03/19 09:16:17;;;;;;;26.00;20.50;;;;;;;25.64;21.69;102602.97;5111292;28;20034;-73
2022/03/19 09:18:43;;;;;;;22.90;19.92;;;;;;;26.15;20.69;102605.16;5111399;28;20425;-74
2022/03/19 09:21:08;;;;;;;21.50;19.27;;;;;;;26.15;19.85;102596.91;5112656;28;20024;-73
2022/03/19 09:23:34;;;;;;;21.23;18.73;;;;;;;26.01;20.59;102589.41;5113639;28;20126;-73
2022/03/19 09:25:59;;;;;;;22.58;20.08;;;;;;;25.98;20.70;102592.50;5112657;28;20476;-73
2022/03/19 09:28:25;;;;;;;24.17;21.00;;;;;;;26.18;20.53;102591.06;5111341;28;20066;-74
2022/03/19 09:30:51;;;;;;;27.60;19.65;;;;;;;25.97;20.76;102602.69;5112838;28;20479;-74
2022/03/19 09:33:17;;;;;;;22.05;19.80;;;;;;;26.06;20.57;102587.81;5111562;28;20020;-74
2022/03/19 09:35:42;;;;;;;23.52;20.20;;;;;;;26.07;20.61;102603.31;5112853;28;20019;-74
2022/03/19 09:38:08;;;;;;;22.17;19.65;;;;;;;26.12;20.27;102595.34;5110797;28;20077;-74
2022/03/19 09:40:33;;;;;;;21.58;19.45;;;;;;;26.08;20.34;102582.13;5111930;28;20035;-73
2022/03/19 09:42:59;;;;;;;21.77;19.30;;;;;;;25.86;20.35;102592.03;5110628;28;20031;-74
2022/03/19 09:45:26;;;;;;;21.80;19.42;;;;;;;26.02;20.17;102580.97;5111459;28;20028;-74
2022/03/19 09:47:53;;;;;;;23.67;19.17;;;;;;;25.86;20.34;102574.69;5109226;28;20041;-74
2022/03/19 09:50:19;;;;;;;20.63;18.63;;;;;;;25.63;20.50;102588.34;5110194;28;20078;-73
2022/03/19 09:52:44;;;;;;;22.55;19.20;;;;;;;25.70;20.71;102581.09;5111342;28;20059;-73
2022/03/19 09:55:15;;;;;;;21.02;18.80;;;;;;;26.03;20.38;102581.84;5112135;28;20031;-73
2022/03/19 09:57:41;;;;;;;22.27;20.00;;;;;;;26.06;20.24;102576.81;5112352;28;20035;-75
2022/03/19 10:00:07;;;;;;;22.35;19.95;;;;;;;26.12;20.12;102569.75;5112713;28;20032;-75
2022/03/19 10:02:33;;;;;;;21.30;18.67;;;;;;;26.08;20.04;102576.63;5108167;28;20035;-74
2022/03/19 10:08:35;;;;;;;21.00;18.80;;;;;;;25.93;20.11;102572.94;5110131;28;20817;-74
2022/03/19 10:10:40;;;;;;;20.98;18.75;;;;;;;25.10;20.84;102570.78;5109400;27;20173;-74
2022/03/19 10:13:11;;;;;;;21.13;18.75;;;;;;;24.35;21.33;102574.72;5109205;28;20039;-74
2022/03/19 10:15:40;;;;;;;21.88;18.98;;;;;;;23.28;22.52;102572.75;5107661;28;20024;-74
2022/03/19 10:18:08;;;;;;;21.20;19.10;;;;;;;22.33;23.18;102569.06;5108488;28;20024;-74
2022/03/19 10:20:37;;;;;;;20.98;18.88;;;;;;;21.63;24.08;102573.50;5109186;28;20023;-75
2022/03/19 10:23:04;;;;;;;22.80;20.27;;;;;;;20.66;24.72;102578.53;5103364;28;20023;-73
2022/03/19 10:25:30;;;;;;;22.95;20.15;;;;;;;19.77;25.57;102575.97;5106341;28;20517;-74
2022/03/19 10:28:01;;;;;;;21.92;19.67;;;;;;;18.91;26.68;102571.94;5109030;28;20085;-75
2022/03/19 10:30:35;;;;;;;22.42;20.15;;;;;;;17.89;27.72;102581.63;5107936;28;20019;-75
2022/03/19 10:33:08;;;;;;;22.50;20.13;;;;;;;17.35;28.65;102588.81;5108749;28;20043;-76
2022/03/19 10:35:39;;;;;;;24.92;20.73;;;;;;;16.85;29.59;102575.69;5109158;28;20210;-76
2022/03/19 10:38:20;;;;;;;22.25;19.80;;;;;;;16.39;30.34;102570.22;5107229;28;20488;-76
2022/03/19 10:40:47;;;;;;;25.92;20.67;;;;;;;16.10;30.64;102562.59;5106230;28;20072;-76
2022/03/19 10:43:16;;;;;;;23.75;19.75;;;;;;;15.89;31.15;102568.63;5107537;28;20031;-75
2022/03/19 10:45:43;;;;;;;29.60;20.92;;;;;;;15.62;31.50;102567.97;5109927;27;20027;-76
2022/03/19 10:48:11;;;;;;;26.77;21.15;;;;;;;15.45;31.43;102559.34;5109011;28;20059;-77
2022/03/19 10:50:42;;;;;;;25.67;20.75;;;;;;;15.16;31.96;102563.25;5110323;28;20016;-77
2022/03/19 10:53:07;;;;;;;28.05;20.65;;;;;;;15.13;31.92;102563.47;5103279;28;20046;-76
2022/03/19 10:55:33;;;;;;;26.13;20.80;;;;;;;14.85;32.58;102553.75;5100657;28;20016;-76
2022/03/19 10:57:59;;;;;;;26.95;20.27;;;;;;;14.74;32.52;102558.19;5105130;27;20054;-76
2022/03/19 11:00:25;;;;;;;24.23;19.38;;;;;;;14.61;33.13;102560.00;5101810;28;20027;-77
2022/03/19 11:02:54;;;;;;;26.33;19.17;;;;;;;14.60;32.74;102548.31;5102838;28;20477;-76
2022/03/19 11:05:24;;;;;;;26.70;20.45;;;;;;;14.44;33.43;102547.63;5109830;28;20493;-77
2022/03/19 11:07:51;;;;;;;30.42;21.35;;;;;;;14.30;32.78;102544.16;5100513;28;20035;-75
2022/03/19 11:10:19;;;;;;;27.70;18.80;;;;;;;14.17;32.82;102536.00;5102861;28;20027;-75
2022/03/19 11:12:50;;;;;;;26.27;19.88;;;;;;;14.02;32.82;102534.31;5105024;28;20043;-76
2022/03/19 11:15:18;;;;;;;22.70;17.40;;;;;;;13.90;32.38;102537.84;5103152;28;20026;-75
2022/03/19 11:17:45;;;;;;;22.92;16.75;;;;;;;13.81;32.93;102533.06;5098468;28;20538;-75
2022/03/19 11:20:12;;;;;;;22.90;17.35;;;;;;;13.73;32.49;102533.56;5100932;28;20433;-75